Time;durP1;ratioP1;P1;durP2;ratioP2;P2;SDS_P1;SDS_P2;PMS_P1;PMS_P2;Temp;Humidity;BMP_temperature;BMP_pressure;BME280_temperature;BME280_humidity;BME280_pressure;Samples;Min_cycle;Max_cycle;Signal;HPM_P1;HPM_P2
2023/06/26 00:02:16;;;;;;;8.20;6.50;;;23.00;97.60;;;;;;6243807;23;20074;-65
2023/06/26 00:04:43;;;;;;;8.38;6.55;;;23.00;97.70;;;;;;6244621;23;20510;-64
2023/06/26 00:07:11;;;;;;;7.53;6.03;;;23.00;97.70;;;;;;6247349;23;20028;-65
2023/06/26 00:09:38;;;;;;;9.82;6.47;;;23.00;97.80;;;;;;6245106;23;20401;-65
2023/06/26 00:12:05;;;;;;;12.80;6.43;;;23.00;97.80;;;;;;6244723;23;20028;-65
2023/06/26 00:14:33;;;;;;;10.32;6.72;;;23.00;97.90;;;;;;6245194;23;20032;-65
2023/06/26 00:17:00;;;;;;;8.52;6.22;;;23.00;98.10;;;;;;6245353;23;20024;-65
2023/06/26 00:19:27;;;;;;;7.93;6.63;;;23.00;98.20;;;;;;6244407;23;20070;-65
2023/06/26 00:21:54;;;;;;;8.88;6.18;;;22.90;98.30;;;;;;6247066;23;20024;-65
2023/06/26 00:24:21;;;;;;;8.32;6.55;;;23.00;98.40;;;;;;6246875;23;20031;-65
2023/06/26 00:26:49;;;;;;;11.18;7.22;;;23.00;98.40;;;;;;6244480;23;20024;-65
2023/06/26 00:29:16;;;;;;;8.63;6.05;;;23.00;98.40;;;;;;6246832;23;20480;-66
2023/06/26 00:31:45;;;;;;;6.93;6.20;;;22.90;98.50;;;;;;6245216;23;20413;-65
2023/06/26 00:34:12;;;;;;;8.27;6.00;;;22.90;98.60;;;;;;6244361;23;20054;-64
2023/06/26 00:36:39;;;;;;;10.98;6.45;;;22.90;98.70;;;;;;6245126;23;20024;-65
2023/06/26 00:39:06;;;;;;;7.57;6.00;;;22.90;98.80;;;;;;6245348;23;20466;-65
2023/06/26 00:41:32;;;;;;;10.32;6.75;;;22.80;99.00;;;;;;6245958;23;20082;-65
2023/06/26 00:43:59;;;;;;;10.55;6.95;;;22.80;99.10;;;;;;6246482;23;20082;-64
2023/06/26 00:46:26;;;;;;;7.95;6.55;;;22.80;99.10;;;;;;6244931;23;20077;-64
2023/06/26 00:48:56;;;;;;;7.85;6.30;;;22.80;99.10;;;;;;6246117;22;20035;-65
2023/06/26 00:51:23;;;;;;;8.40;7.23;;;22.80;99.30;;;;;;6244980;23;20022;-65
2023/06/26 00:53:50;;;;;;;10.00;6.80;;;22.80;99.40;;;;;;6245944;23;20024;-65
2023/06/26 00:56:19;;;;;;;10.15;7.35;;;22.80;99.50;;;;;;6246767;23;20027;-65
2023/06/26 00:58:46;;;;;;;9.00;6.68;;;22.80;99.50;;;;;;6246781;23;20095;-65
2023/06/26 01:01:15;;;;;;;9.95;7.25;;;22.70;99.80;;;;;;6244114;23;20016;-65
2023/06/26 01:03:43;;;;;;;9.17;7.57;;;22.70;99.80;;;;;;6244909;23;20031;-64
2023/06/26 01:06:14;;;;;;;8.35;6.47;;;22.60;99.90;;;;;;6244742;23;20028;-65
2023/06/26 01:08:42;;;;;;;8.85;7.53;;;22.60;99.90;;;;;;6244220;23;20066;-65
2023/06/26 01:11:09;;;;;;;8.45;7.57;;;22.60;99.90;;;;;;6246407;23;20051;-64
2023/06/26 01:13:37;;;;;;;8.07;7.07;;;22.60;99.90;;;;;;6246180;23;20024;-65
2023/06/26 01:16:06;;;;;;;9.70;7.50;;;22.50;99.90;;;;;;6245479;23;20024;-65
2023/06/26 01:18:35;;;;;;;9.18;7.55;;;22.50;99.90;;;;;;6246628;22;20028;-64
2023/06/26 01:21:04;;;;;;;9.85;7.78;;;22.50;99.90;;;;;;6246531;23;20020;-65
2023/06/26 01:23:47;;;;;;;10.65;7.35;;;22.50;99.90;;;;;;6245396;23;20469;-65
2023/06/26 01:26:21;;;;;;;10.23;6.82;;;22.50;99.90;;;;;;6246495;23;20023;-65
2023/06/26 01:28:50;;;;;;;8.75;7.35;;;22.50;99.90;;;;;;6243837;23;20027;-65
2023/06/26 01:31:17;;;;;;;8.70;7.72;;;22.50;99.90;;;;;;6244277;23;20020;-65
2023/06/26 01:33:46;;;;;;;12.68;7.65;;;22.40;99.90;;;;;;6246295;23;20108;-65
2023/06/26 01:36:13;;;;;;;9.25;7.65;;;22.40;99.90;;;;;;6245496;23;20462;-65
2023/06/26 01:38:40;;;;;;;10.73;7.72;;;22.40;99.90;;;;;;6246392;23;20020;-65
2023/06/26 01:41:08;;;;;;;9.50;7.93;;;22.40;99.90;;;;;;6243997;23;20020;-65
2023/06/26 01:43:44;;;;;;;9.30;7.18;;;22.30;99.90;;;;;;6245557;23;20070;-64
2023/06/26 01:46:17;;;;;;;11.20;7.35;;;22.30;99.90;;;;;;6244508;23;20028;-64
2023/06/26 01:48:51;;;;;;;10.32;7.13;;;22.30;99.90;;;;;;6244493;23;20054;-64
2023/06/26 01:51:20;;;;;;;10.45;7.60;;;22.20;99.90;;;;;;6243446;23;20016;-65
2023/06/26 01:53:54;;;;;;;9.27;7.80;;;22.20;99.90;;;;;;6246140;23;20020;-64
2023/06/26 01:56:24;;;;;;;9.95;8.10;;;22.10;99.90;;;;;;6246308;22;20028;-64
2023/06/26 01:58:54;;;;;;;9.40;7.78;;;22.10;99.90;;;;;;6245582;23;20026;-65
2023/06/26 02:01:22;;;;;;;8.75;7.72;;;22.00;99.90;;;;;;6245970;23;20454;-65
2023/06/26 02:03:49;;;;;;;9.75;8.02;;;22.00;99.90;;;;;;6246507;23;20385;-64
2023/06/26 02:06:16;;;;;;;9.98;7.55;;;22.00;99.90;;;;;;6245097;23;20023;-64
2023/06/26 02:08:43;;;;;;;8.70;7.78;;;21.90;99.90;;;;;;6245816;23;20025;-65
2023/06/26 02:11:10;;;;;;;12.77;8.23;;;21.90;99.90;;;;;;6245084;23;20346;-65
2023/06/26 02:13:37;;;;;;;10.35;7.72;;;21.90;99.90;;;;;;6244076;23;20020;-65
2023/06/26 02:16:05;;;;;;;9.18;8.02;;;21.80;99.90;;;;;;6243893;23;20094;-65
2023/06/26 02:18:32;;;;;;;11.00;8.48;;;21.80;99.90;;;;;;6245134;23;20024;-65
2023/06/26 02:20:59;;;;;;;9.95;8.90;;;21.70;99.90;;;;;;6245496;23;20024;-65
2023/06/26 02:23:26;;;;;;;9.52;8.38;;;21.70;99.90;;;;;;6244094;23;20440;-65
2023/06/26 02:25:53;;;;;;;15.50;8.20;;;21.60;99.90;;;;;;6244923;22;20028;-65
2023/06/26 02:28:20;;;;;;;11.15;8.02;;;21.60;99.90;;;;;;6244107;23;20085;-65
2023/06/26 02:30:47;;;;;;;10.55;8.70;;;21.50;99.90;;;;;;6245320;23;20020;-64
2023/06/26 02:33:15;;;;;;;12.05;9.02;;;21.50;99.90;;;;;;6245085;23;20020;-64
2023/06/26 02:35:42;;;;;;;12.10;9.10;;;21.40;99.90;;;;;;6245646;23;20024;-64
2023/06/26 02:38:10;;;;;;;12.00;9.23;;;21.40;99.90;;;;;;6245809;23;20024;-64
2023/06/26 02:40:37;;;;;;;11.27;8.85;;;21.30;99.90;;;;;;6244884;23;20445;-64
2023/06/26 02:43:04;;;;;;;11.50;9.38;;;21.30;99.90;;;;;;6243739;23;20034;-64
2023/06/26 02:45:31;;;;;;;11.60;10.40;;;21.20;99.90;;;;;;6245526;23;20024;-64
2023/06/26 02:47:57;;;;;;;11.98;9.75;;;21.20;99.90;;;;;;6242978;23;20028;-65
2023/06/26 02:50:26;;;;;;;12.00;10.07;;;21.10;99.90;;;;;;6243501;23;20054;-65
2023/06/26 02:52:53;;;;;;;11.60;9.50;;;21.10;99.90;;;;;;6243868;23;20461;-64
2023/06/26 02:55:20;;;;;;;12.05;9.70;;;21.10;99.90;;;;;;6244451;23;20074;-65
2023/06/26 02:57:47;;;;;;;11.38;9.93;;;21.10;99.90;;;;;;6245310;23;20024;-64
2023/06/26 03:00:15;;;;;;;12.10;9.93;;;21.00;99.90;;;;;;6243940;23;20020;-65
2023/06/26 03:02:42;;;;;;;11.50;10.18;;;21.00;99.90;;;;;;6245089;22;20020;-65
2023/06/26 03:05:09;;;;;;;12.27;10.48;;;20.90;99.90;;;;;;6243208;23;20048;-64
2023/06/26 03:07:37;;;;;;;13.27;10.50;;;20.90;99.90;;;;;;6242705;23;20093;-64
2023/06/26 03:10:05;;;;;;;10.85;9.75;;;20.90;99.90;;;;;;6243568;23;20458;-64
2023/06/26 03:12:32;;;;;;;12.10;10.20;;;20.90;99.90;;;;;;6243680;23;20034;-64
2023/06/26 03:14:59;;;;;;;11.93;10.32;;;20.90;99.90;;;;;;6244322;22;20070;-64
2023/06/26 03:17:26;;;;;;;11.80;10.00;;;20.90;99.90;;;;;;6243560;23;20078;-64
2023/06/26 03:19:52;;;;;;;13.82;10.55;;;20.80;99.90;;;;;;6245400;23;20338;-64
2023/06/26 03:22:19;;;;;;;13.77;10.80;;;20.80;99.90;;;;;;6242964;23;20016;-65
2023/06/26 03:24:48;;;;;;;11.68;10.55;;;20.80;99.90;;;;;;6243574;23;20512;-65
2023/06/26 03:27:15;;;;;;;13.70;10.82;;;20.80;99.90;;;;;;6243444;23;20024;-64
2023/06/26 03:29:42;;;;;;;14.45;11.70;;;20.80;99.90;;;;;;6242793;23;20402;-65
2023/06/26 03:32:09;;;;;;;12.65;11.07;;;20.80;99.90;;;;;;6244923;23;20020;-65
2023/06/26 03:34:36;;;;;;;13.63;11.25;;;20.80;99.90;;;;;;6245069;22;20028;-64
2023/06/26 03:37:03;;;;;;;28.55;11.27;;;20.80;99.90;;;;;;6244338;23;20074;-65
2023/06/26 03:39:30;;;;;;;14.35;11.10;;;20.80;99.90;;;;;;6247493;23;20536;-64
2023/06/26 03:42:00;;;;;;;12.32;10.60;;;20.80;99.90;;;;;;6246663;23;20031;-64
2023/06/26 03:44:27;;;;;;;14.13;11.38;;;20.90;99.90;;;;;;6246753;23;20024;-65
2023/06/26 03:46:54;;;;;;;12.68;10.75;;;21.00;99.90;;;;;;6245456;23;20098;-65
2023/06/26 03:49:21;;;;;;;14.10;10.77;;;21.00;99.90;;;;;;6245527;23;20458;-65
2023/06/26 03:51:48;;;;;;;12.07;10.77;;;21.00;99.90;;;;;;6244580;23;20025;-64
2023/06/26 03:54:15;;;;;;;13.30;10.70;;;21.00;99.90;;;;;;6247405;23;20059;-65
2023/06/26 03:56:42;;;;;;;12.13;9.95;;;21.00;99.90;;;;;;6246453;22;20074;-65
2023/06/26 03:59:10;;;;;;;12.48;10.35;;;21.00;99.90;;;;;;6245476;23;20093;-65
2023/06/26 04:01:38;;;;;;;12.10;10.25;;;21.10;99.90;;;;;;6246871;23;20528;-65
2023/06/26 04:04:05;;;;;;;13.07;9.18;;;21.10;99.90;;;;;;6244687;23;20028;-65
2023/06/26 04:06:33;;;;;;;12.63;9.90;;;21.10;99.90;;;;;;6247169;23;20048;-66
2023/06/26 04:08:59;;;;;;;12.82;10.38;;;21.10;99.90;;;;;;6245105;23;20062;-66
2023/06/26 04:11:27;;;;;;;11.70;10.20;;;21.10;99.90;;;;;;6244411;23;20094;-63
2023/06/26 04:13:54;;;;;;;12.60;10.10;;;21.00;99.90;;;;;;6247216;23;20075;-65
2023/06/26 04:16:25;;;;;;;10.82;9.73;;;21.00;99.90;;;;;;6245402;23;20024;-64
2023/06/26 04:18:52;;;;;;;16.33;9.90;;;21.00;99.90;;;;;;6246337;23;20031;-64
2023/06/26 04:21:19;;;;;;;14.77;10.40;;;21.10;99.90;;;;;;6247144;23;20074;-64
2023/06/26 04:23:47;;;;;;;9.98;8.90;;;21.10;99.90;;;;;;6246929;23;20407;-64
2023/06/26 04:26:14;;;;;;;11.95;9.20;;;21.20;99.90;;;;;;6244447;23;20031;-64
2023/06/26 04:28:41;;;;;;;12.25;8.77;;;21.30;99.90;;;;;;6245169;23;20078;-64
2023/06/26 04:31:08;;;;;;;10.85;7.60;;;21.40;99.90;;;;;;6244878;23;20099;-64
2023/06/26 04:33:37;;;;;;;9.75;7.78;;;21.50;99.90;;;;;;6244252;23;20024;-64
2023/06/26 04:36:04;;;;;;;12.82;8.38;;;21.60;99.90;;;;;;6246782;23;20358;-64
2023/06/26 04:38:31;;;;;;;12.48;8.05;;;21.70;99.90;;;;;;6245111;23;20024;-65
2023/06/26 04:40:58;;;;;;;9.85;7.13;;;21.80;99.90;;;;;;6243981;23;20139;-63
2023/06/26 04:43:25;;;;;;;11.82;7.13;;;21.80;99.90;;;;;;6246973;23;20020;-64
2023/06/26 04:45:52;;;;;;;16.90;6.97;;;21.90;99.90;;;;;;6245890;23;20028;-65
2023/06/26 04:48:19;;;;;;;11.80;7.50;;;22.00;99.90;;;;;;6246680;23;20028;-65
2023/06/26 04:50:53;;;;;;;14.35;7.68;;;22.00;99.90;;;;;;6246612;23;20031;-64
2023/06/26 04:53:21;;;;;;;12.43;7.47;;;22.00;99.90;;;;;;6243756;23;20024;-65
2023/06/26 04:55:48;;;;;;;12.50;7.30;;;21.90;99.90;;;;;;6244371;23;20031;-64
2023/06/26 04:58:16;;;;;;;15.68;8.13;;;21.90;99.90;;;;;;6242530;23;20031;-64
2023/06/26 05:00:43;;;;;;;15.50;7.65;;;21.80;99.90;;;;;;6245129;23;20035;-64
2023/06/26 05:03:10;;;;;;;12.85;8.07;;;21.80;99.90;;;;;;6244926;23;20107;-64
2023/06/26 05:05:37;;;;;;;12.65;8.00;;;21.70;99.90;;;;;;6245857;23;20393;-65
2023/06/26 05:08:16;;;;;;;14.45;7.97;;;21.60;99.90;;;;;;6244858;23;20031;-65
2023/06/26 05:10:44;;;;;;;19.23;9.13;;;21.60;99.90;;;;;;6244476;23;20074;-64
2023/06/26 05:13:11;;;;;;;17.58;9.38;;;21.50;99.90;;;;;;6244588;23;20020;-64
2023/06/26 05:19:41;;;;;;;20.52;10.63;;;21.40;99.90;;;;;;6235284;23;20043;-65
2023/06/26 05:22:09;;;;;;;14.48;10.13;;;21.30;99.90;;;;;;6242957;23;20362;-65
2023/06/26 05:24:38;;;;;;;15.52;9.65;;;21.20;99.90;;;;;;6244718;22;20024;-64
2023/06/26 05:27:07;;;;;;;16.55;9.30;;;21.20;99.90;;;;;;6243204;23;20099;-64
2023/06/26 05:29:35;;;;;;;16.10;8.85;;;21.30;99.90;;;;;;6244768;23;20020;-64
2023/06/26 05:32:02;;;;;;;15.52;8.57;;;21.30;99.90;;;;;;6245093;23;20028;-64
2023/06/26 05:34:31;;;;;;;19.45;8.80;;;21.20;99.90;;;;;;6242553;23;20035;-65
2023/06/26 05:36:59;;;;;;;19.80;7.13;;;21.30;99.90;;;;;;6245324;22;20051;-65
2023/06/26 05:39:27;;;;;;;15.57;6.95;;;21.20;99.90;;;;;;6242847;23;20028;-64
2023/06/26 05:41:56;;;;;;;17.17;6.82;;;21.20;99.90;;;;;;6242410;23;20031;-64
2023/06/26 05:44:23;;;;;;;17.23;6.03;;;21.20;99.90;;;;;;6244773;22;20025;-65
2023/06/26 05:46:50;;;;;;;13.00;5.80;;;21.10;99.90;;;;;;6243221;23;20358;-64
2023/06/26 05:49:17;;;;;;;10.90;6.45;;;21.00;99.90;;;;;;6243844;23;20470;-65
2023/06/26 05:51:44;;;;;;;10.50;5.57;;;21.00;99.90;;;;;;6243383;23;20070;-64
2023/06/26 05:54:13;;;;;;;14.13;6.07;;;20.90;99.90;;;;;;6242743;23;20028;-64
2023/06/26 05:56:40;;;;;;;19.52;5.38;;;20.80;99.90;;;;;;6242808;23;20103;-64
2023/06/26 05:59:10;;;;;;;12.55;5.50;;;20.70;99.90;;;;;;6244305;23;20028;-64
2023/06/26 06:01:37;;;;;;;9.50;4.70;;;20.80;99.90;;;;;;6243128;23;20024;-64
2023/06/26 06:04:04;;;;;;;13.50;5.13;;;20.90;99.90;;;;;;6243718;23;20239;-64
2023/06/26 06:06:31;;;;;;;12.63;4.70;;;21.10;99.90;;;;;;6242579;23;20545;-64
2023/06/26 06:08:58;;;;;;;20.42;5.68;;;21.20;99.90;;;;;;6243865;23;20032;-64
2023/06/26 06:11:24;;;;;;;10.73;4.43;;;21.40;99.90;;;;;;6241547;23;20027;-64
2023/06/26 06:13:51;;;;;;;17.25;4.40;;;21.50;99.90;;;;;;6245007;23;20024;-65
2023/06/26 06:16:20;;;;;;;17.55;4.85;;;21.70;99.90;;;;;;6241420;23;20589;-65
2023/06/26 06:18:46;;;;;;;16.52;5.32;;;21.80;99.90;;;;;;6242839;23;20028;-65
2023/06/26 06:21:13;;;;;;;12.15;4.50;;;22.00;99.90;;;;;;6246074;23;20020;-65
2023/06/26 06:23:40;;;;;;;12.35;4.57;;;22.00;99.90;;;;;;6243205;23;20035;-66
2023/06/26 06:26:07;;;;;;;8.82;4.13;;;22.20;99.90;;;;;;6245940;23;20024;-65
2023/06/26 06:28:34;;;;;;;17.35;4.30;;;22.40;99.90;;;;;;6245960;23;20035;-65
2023/06/26 06:31:01;;;;;;;14.90;4.07;;;22.60;99.90;;;;;;6244912;23;20070;-65
2023/06/26 06:33:29;;;;;;;14.07;4.20;;;22.80;99.90;;;;;;6243920;23;20086;-64
2023/06/26 06:35:56;;;;;;;9.93;3.28;;;22.90;99.90;;;;;;6245721;23;20083;-65
2023/06/26 06:38:23;;;;;;;8.38;2.97;;;22.90;99.90;;;;;;6245098;23;20020;-64
2023/06/26 06:40:50;;;;;;;10.25;3.00;;;22.90;99.90;;;;;;6245760;23;20028;-65
2023/06/26 06:43:17;;;;;;;7.90;2.88;;;23.10;99.90;;;;;;6242224;23;20453;-65
2023/06/26 06:45:44;;;;;;;8.45;2.63;;;23.60;99.90;;;;;;6244395;23;20094;-65
2023/06/26 06:48:11;;;;;;;10.88;3.20;;;23.70;99.90;;;;;;6243747;23;20020;-65
2023/06/26 06:50:39;;;;;;;10.82;3.13;;;24.00;99.90;;;;;;6245555;23;20086;-64
2023/06/26 06:53:06;;;;;;;7.65;2.65;;;24.30;99.90;;;;;;6242932;23;20094;-65
2023/06/26 06:55:33;;;;;;;8.85;3.05;;;24.60;99.90;;;;;;6243489;23;20024;-64
2023/06/26 06:58:00;;;;;;;10.18;3.35;;;24.50;99.90;;;;;;6245275;23;20021;-66
2023/06/26 07:00:27;;;;;;;9.35;3.70;;;24.50;99.90;;;;;;6242735;23;20031;-65
2023/06/26 07:02:56;;;;;;;7.80;2.92;;;24.30;99.90;;;;;;6243693;23;20390;-65
2023/06/26 07:05:23;;;;;;;9.45;3.08;;;24.20;99.90;;;;;;6242961;23;20026;-66
2023/06/26 07:07:51;;;;;;;4.85;1.75;;;24.50;99.90;;;;;;6243556;23;20476;-65
2023/06/26 07:10:18;;;;;;;8.98;2.60;;;24.80;99.90;;;;;;6245465;23;20024;-66
2023/06/26 07:12:45;;;;;;;9.45;2.42;;;25.30;99.90;;;;;;6242533;23;20020;-66
2023/06/26 07:15:12;;;;;;;9.32;2.78;;;25.70;99.90;;;;;;6245405;23;20070;-65
2023/06/26 07:17:39;;;;;;;7.38;2.80;;;26.00;99.00;;;;;;6245339;23;20078;-66
2023/06/26 07:20:08;;;;;;;5.18;2.40;;;26.20;99.20;;;;;;6244633;23;20346;-66
2023/06/26 07:22:35;;;;;;;5.90;2.45;;;26.50;98.80;;;;;;6243675;23;20039;-66
2023/06/26 07:25:03;;;;;;;6.97;2.40;;;26.90;98.40;;;;;;6243444;23;20453;-65
2023/06/26 07:27:31;;;;;;;10.93;2.28;;;27.00;97.50;;;;;;6244638;23;20024;-65
2023/06/26 07:29:57;;;;;;;5.68;2.00;;;27.30;97.20;;;;;;6244847;23;20099;-66
2023/06/26 07:32:24;;;;;;;4.78;2.20;;;27.90;96.60;;;;;;6243433;23;20031;-66
2023/06/26 07:34:51;;;;;;;4.38;2.05;;;28.00;95.60;;;;;;6244622;23;20032;-66
2023/06/26 07:37:18;;;;;;;7.78;2.25;;;28.00;95.40;;;;;;6245346;23;20454;-66
2023/06/26 07:39:45;;;;;;;8.90;2.47;;;27.20;95.40;;;;;;6245380;23;20031;-66
2023/06/26 07:42:13;;;;;;;5.63;2.15;;;26.70;95.80;;;;;;6244151;23;20090;-65
2023/06/26 07:44:42;;;;;;;8.20;2.30;;;26.70;96.20;;;;;;6245065;23;20389;-65
2023/06/26 07:47:09;;;;;;;4.88;1.48;;;26.40;96.20;;;;;;6245199;23;20074;-65
2023/06/26 07:49:36;;;;;;;8.85;2.28;;;26.50;95.90;;;;;;6242921;23;20516;-66
2023/06/26 07:52:04;;;;;;;8.70;2.17;;;26.80;95.50;;;;;;6244818;22;20450;-66
2023/06/26 07:54:31;;;;;;;3.88;1.88;;;26.80;95.20;;;;;;6245232;23;20024;-66
2023/06/26 07:56:59;;;;;;;3.90;1.80;;;27.00;95.10;;;;;;6244847;23;20028;-66
2023/06/26 07:59:29;;;;;;;4.30;2.00;;;26.80;94.60;;;;;;6243362;23;20016;-65
2023/06/26 08:01:57;;;;;;;6.20;1.70;;;27.00;94.40;;;;;;6244494;23;20521;-65
2023/06/26 08:04:25;;;;;;;3.90;1.50;;;27.20;94.20;;;;;;6245140;23;20454;-66
2023/06/26 08:06:54;;;;;;;6.00;1.85;;;27.40;93.60;;;;;;6243392;23;20409;-66
2023/06/26 08:09:22;;;;;;;5.07;1.80;;;27.60;93.50;;;;;;6242352;23;20028;-66
2023/06/26 08:11:49;;;;;;;5.03;1.90;;;27.40;93.50;;;;;;6244911;23;20028;-66
2023/06/26 08:14:17;;;;;;;4.40;1.60;;;27.30;92.90;;;;;;6244816;23;20454;-66
2023/06/26 08:16:46;;;;;;;5.88;1.65;;;28.00;92.90;;;;;;6244393;23;20346;-66
2023/06/26 08:19:14;;;;;;;4.53;1.40;;;28.30;92.40;;;;;;6245214;23;20031;-65
2023/06/26 08:21:41;;;;;;;6.78;1.80;;;27.90;92.40;;;;;;6245074;23;20042;-65
2023/06/26 08:24:08;;;;;;;4.70;1.58;;;27.50;92.70;;;;;;6245463;23;20024;-65
2023/06/26 08:26:35;;;;;;;8.80;1.90;;;27.10;92.50;;;;;;6245025;23;20028;-65
2023/06/26 08:29:07;;;;;;;4.70;2.05;;;26.70;92.50;;;;;;6245043;23;20020;-66
2023/06/26 08:31:34;;;;;;;5.38;1.70;;;26.60;93.30;;;;;;6246202;23;20028;-65
2023/06/26 08:34:03;;;;;;;5.15;1.80;;;27.30;93.40;;;;;;6246901;23;20020;-65
2023/06/26 08:36:30;;;;;;;5.57;1.73;;;27.60;92.90;;;;;;6246970;23;20039;-66
2023/06/26 08:38:57;;;;;;;6.05;1.98;;;27.70;92.30;;;;;;6245938;23;20035;-65
2023/06/26 08:41:24;;;;;;;8.52;2.65;;;27.40;92.20;;;;;;6246182;23;20493;-65
2023/06/26 08:43:52;;;;;;;5.80;1.80;;;27.00;92.70;;;;;;6244339;23;20016;-66
2023/06/26 08:46:19;;;;;;;7.38;2.35;;;27.10;92.80;;;;;;6240492;23;20027;-64
2023/06/26 08:48:53;;;;;;;4.18;1.67;;;27.20;92.90;;;;;;6241290;23;20024;-65
2023/06/26 08:51:24;;;;;;;5.28;1.88;;;27.10;93.20;;;;;;6242811;23;20054;-65
2023/06/26 08:53:57;;;;;;;7.50;1.75;;;26.80;93.40;;;;;;6245341;23;20335;-65
2023/06/26 08:56:25;;;;;;;5.80;2.10;;;26.90;93.60;;;;;;6244953;23;20028;-65
2023/06/26 08:58:53;;;;;;;6.85;2.10;;;27.70;93.10;;;;;;6244788;23;20082;-65
2023/06/26 09:01:21;;;;;;;5.25;1.88;;;27.90;92.20;;;;;;6245211;23;20027;-66
2023/06/26 09:03:48;;;;;;;4.97;1.75;;;27.80;92.00;;;;;;6243700;23;20066;-66
2023/06/26 09:06:15;;;;;;;5.65;2.00;;;27.50;92.10;;;;;;6243495;23;20346;-66
2023/06/26 09:08:43;;;;;;;5.28;1.90;;;27.30;92.30;;;;;;6245768;23;20070;-66
2023/06/26 09:11:10;;;;;;;5.68;2.05;;;27.50;91.60;;;;;;6243659;23;20082;-66
2023/06/26 09:13:37;;;;;;;5.15;2.10;;;27.40;92.20;;;;;;6244058;23;20046;-66
2023/06/26 09:16:08;;;;;;;6.88;2.00;;;27.40;92.10;;;;;;6245565;22;20028;-66
2023/06/26 09:18:35;;;;;;;8.77;2.60;;;27.40;91.20;;;;;;6245326;23;20536;-66
2023/06/26 09:21:07;;;;;;;11.43;2.28;;;28.10;91.60;;;;;;6244748;23;20389;-66
2023/06/26 09:23:35;;;;;;;9.00;2.47;;;27.70;90.80;;;;;;6243019;23;20024;-66
2023/06/26 09:26:05;;;;;;;5.00;1.67;;;28.10;91.10;;;;;;6243180;23;20078;-66
2023/06/26 09:28:33;;;;;;;;;;;27.70;90.70;;;;;;6245809;23;20034;-66
2023/06/26 09:31:03;;;;;;;7.57;2.00;;;27.30;90.60;;;;;;6242050;23;19998;-66
2023/06/26 09:33:35;;;;;;;4.78;1.98;;;27.10;91.20;;;;;;6242858;23;20465;-66
2023/06/26 09:36:03;;;;;;;6.70;2.15;;;26.90;91.50;;;;;;6244416;23;20020;-66
2023/06/26 09:38:29;;;;;;;8.30;2.10;;;27.40;91.50;;;;;;6243127;23;20078;-66
2023/06/26 09:40:56;;;;;;;5.22;1.60;;;27.80;91.00;;;;;;6240897;23;20520;-65
2023/06/26 09:43:25;;;;;;;4.28;1.58;;;28.30;90.40;;;;;;6245395;23;20446;-65
2023/06/26 09:45:53;;;;;;;9.20;2.67;;;28.80;89.30;;;;;;6243298;23;20027;-65
2023/06/26 09:48:20;;;;;;;14.07;3.33;;;28.70;89.20;;;;;;6244711;23;20063;-66
2023/06/26 09:50:47;;;;;;;8.27;2.45;;;28.60;89.10;;;;;;6242816;23;20085;-65
2023/06/26 09:53:14;;;;;;;3.85;2.00;;;28.30;89.50;;;;;;6243854;23;20020;-66
2023/06/26 09:55:43;;;;;;;5.10;2.00;;;28.30;89.80;;;;;;6242455;23;20412;-65
2023/06/26 09:58:14;;;;;;;4.18;1.80;;;28.40;88.50;;;;;;6245048;23;20024;-65
2023/06/26 10:00:43;;;;;;;6.35;2.20;;;29.10;87.20;;;;;;6244972;23;20059;-66
2023/06/26 10:03:12;;;;;;;6.07;2.30;;;29.10;87.80;;;;;;6244811;23;20024;-65
2023/06/26 10:05:39;;;;;;;5.28;2.50;;;28.90;87.30;;;;;;6242798;23;20103;-66
2023/06/26 10:08:07;;;;;;;5.32;2.08;;;29.10;86.80;;;;;;6243512;23;20090;-65
2023/06/26 10:10:37;;;;;;;7.15;2.72;;;29.50;86.00;;;;;;6243947;23;20020;-66
2023/06/26 10:13:12;;;;;;;5.25;1.90;;;28.50;83.50;;;;;;6245221;23;20031;-66
2023/06/26 10:15:41;;;;;;;9.32;2.20;;;29.10;84.00;;;;;;6244030;23;20024;-66
2023/06/26 10:18:10;;;;;;;4.50;1.95;;;29.70;85.30;;;;;;6244762;23;20028;-65
2023/06/26 10:20:37;;;;;;;11.07;3.08;;;29.60;83.50;;;;;;6243031;23;20024;-66
2023/06/26 10:23:07;;;;;;;3.30;1.63;;;29.50;84.30;;;;;;6243917;23;20458;-66
2023/06/26 10:25:41;;;;;;;7.15;1.88;;;29.50;82.60;;;;;;6239325;23;20031;-65
2023/06/26 10:28:11;;;;;;;5.55;1.92;;;29.70;82.60;;;;;;6242831;23;20034;-66
2023/06/26 10:30:38;;;;;;;;;;;29.00;82.90;;;;;;6243706;23;20026;-66
2023/06/26 10:33:06;;;;;;;9.80;2.10;;;28.10;83.70;;;;;;6244507;23;19915;-65
2023/06/26 10:35:41;;;;;;;5.65;1.88;;;28.20;84.90;;;;;;6244076;23;20521;-65
2023/06/26 10:38:08;;;;;;;6.50;2.40;;;28.70;85.00;;;;;;6241643;23;20078;-65
2023/06/26 10:40:42;;;;;;;4.50;2.03;;;29.10;84.80;;;;;;6244720;23;20024;-65
2023/06/26 10:43:11;;;;;;;4.43;2.00;;;28.70;83.00;;;;;;6243802;22;20365;-66
2023/06/26 10:45:43;;;;;;;4.80;2.50;;;28.40;84.20;;;;;;6241592;23;20473;-66
2023/06/26 10:48:10;;;;;;;6.80;2.17;;;28.70;84.70;;;;;;6242452;23;20488;-66
2023/06/26 10:50:39;;;;;;;6.22;2.85;;;29.20;84.30;;;;;;6213231;23;20454;-66
2023/06/26 10:53:15;;;;;;;4.72;2.25;;;29.10;82.60;;;;;;6244057;23;20020;-66
2023/06/26 10:55:44;;;;;;;3.45;1.70;;;28.90;83.30;;;;;;6244003;23;20027;-66
2023/06/26 10:58:31;;;;;;;4.45;1.98;;;28.60;83.70;;;;;;6243687;23;20035;-66
2023/06/26 11:01:21;;;;;;;5.22;2.08;;;28.80;83.80;;;;;;6267029;22;20103;-66
2023/06/26 11:03:50;;;;;;;5.15;2.17;;;29.10;83.20;;;;;;6244386;23;20020;-66
2023/06/26 11:06:21;;;;;;;5.55;2.03;;;29.10;82.90;;;;;;6237745;23;20028;-66
2023/06/26 11:08:50;;;;;;;3.88;1.73;;;29.50;82.60;;;;;;6244027;23;20039;-66
2023/06/26 11:11:17;;;;;;;8.20;2.40;;;29.70;81.60;;;;;;6242219;23;20091;-66
2023/06/26 11:13:46;;;;;;;9.18;2.38;;;29.60;81.70;;;;;;6242623;23;20354;-67
2023/06/26 11:16:14;;;;;;;5.07;1.73;;;28.80;81.60;;;;;;6244175;23;20023;-66
2023/06/26 11:18:41;;;;;;;6.15;2.25;;;28.80;82.40;;;;;;6243450;23;20325;-66
2023/06/26 11:21:09;;;;;;;5.72;1.67;;;28.60;82.90;;;;;;6241814;23;20025;-66
2023/06/26 11:23:37;;;;;;;4.43;1.60;;;28.00;83.00;;;;;;6242006;23;20820;-66
2023/06/26 11:26:18;;;;;;;9.83;2.10;;;28.20;83.50;;;;;;6241958;23;20466;-66
2023/06/26 11:28:49;;;;;;;6.10;1.95;;;28.10;83.10;;;;;;6242005;23;20025;-66
2023/06/26 11:31:34;;;;;;;5.40;1.70;;;28.60;82.50;;;;;;6242287;23;20397;-66
2023/06/26 11:34:03;;;;;;;6.95;2.03;;;28.90;82.30;;;;;;6243098;23;20024;-66
2023/06/26 11:36:31;;;;;;;7.97;1.63;;;29.40;82.10;;;;;;6244137;22;20043;-66
2023/06/26 11:39:02;;;;;;;8.57;1.98;;;29.60;81.10;;;;;;6243815;23;20020;-65
2023/06/26 11:41:31;;;;;;;4.50;1.52;;;29.30;79.60;;;;;;6242361;23;20032;-65
2023/06/26 11:44:01;;;;;;;7.82;1.40;;;28.70;80.20;;;;;;6242421;23;20059;-65
2023/06/26 11:46:28;;;;;;;7.13;1.20;;;29.00;80.60;;;;;;6241921;23;20028;-66
2023/06/26 11:48:56;;;;;;;10.48;1.58;;;29.00;81.10;;;;;;6243496;23;20043;-65
2023/06/26 11:51:23;;;;;;;8.30;2.15;;;29.00;81.20;;;;;;6241548;23;20474;-66
2023/06/26 11:53:50;;;;;;;6.88;1.98;;;28.40;80.60;;;;;;6242150;23;20070;-65
2023/06/26 11:56:19;;;;;;;10.27;2.08;;;28.10;81.40;;;;;;6243128;23;20024;-65
2023/06/26 11:59:00;;;;;;;6.00;1.40;;;28.30;80.80;;;;;;6242524;23;20458;-66
2023/06/26 12:01:28;;;;;;;8.73;1.35;;;29.00;80.80;;;;;;6245124;23;20024;-66
2023/06/26 12:04:00;;;;;;;15.90;2.47;;;29.00;80.40;;;;;;6244057;23;20020;-67
2023/06/26 12:06:27;;;;;;;5.72;1.58;;;29.40;80.30;;;;;;6245648;23;20020;-66
2023/06/26 12:08:54;;;;;;;5.47;1.50;;;29.40;79.90;;;;;;6245277;23;20024;-66
2023/06/26 12:11:24;;;;;;;9.02;2.05;;;29.60;79.50;;;;;;6245714;23;20047;-66
2023/06/26 12:13:52;;;;;;;5.45;1.70;;;29.00;79.70;;;;;;6246069;23;20370;-66
2023/06/26 12:16:19;;;;;;;17.48;2.35;;;29.10;80.00;;;;;;6244609;23;20042;-65
2023/06/26 12:18:46;;;;;;;7.05;1.58;;;29.00;79.40;;;;;;6244035;23;20024;-64
2023/06/26 12:21:29;;;;;;;10.88;2.60;;;28.80;78.60;;;;;;6244114;23;20035;-65
2023/06/26 12:23:59;;;;;;;5.90;1.70;;;28.30;78.80;;;;;;6245227;22;20020;-63
2023/06/26 12:26:28;;;;;;;5.63;1.67;;;28.30;79.20;;;;;;6245582;23;20024;-63
2023/06/26 12:29:03;;;;;;;5.82;1.30;;;28.90;78.80;;;;;;6245712;23;20563;-61
2023/06/26 12:31:30;;;;;;;6.85;1.67;;;29.20;78.20;;;;;;6246043;23;20031;-62
2023/06/26 12:33:57;;;;;;;6.43;2.00;;;29.00;78.40;;;;;;6245245;23;20023;-62
2023/06/26 12:36:24;;;;;;;4.53;1.60;;;29.30;78.40;;;;;;6243244;23;20046;-62
2023/06/26 12:38:53;;;;;;;3.97;1.40;;;29.50;78.10;;;;;;6245906;23;20073;-62
2023/06/26 12:41:20;;;;;;;6.07;1.47;;;29.90;76.90;;;;;;6245070;23;20028;-62
2023/06/26 12:43:48;;;;;;;8.00;1.52;;;30.10;76.90;;;;;;6244982;23;20083;-62
2023/06/26 12:46:15;;;;;;;6.88;1.60;;;30.20;76.60;;;;;;6245924;22;20028;-62
2023/06/26 12:48:46;;;;;;;9.52;2.13;;;29.70;75.80;;;;;;6245253;23;20460;-62
2023/06/26 12:51:14;;;;;;;7.78;1.75;;;29.20;76.20;;;;;;6245024;23;20027;-62
2023/06/26 12:53:41;;;;;;;4.72;1.60;;;28.60;76.90;;;;;;6243449;23;20024;-62